OROVILLE DAM (ORO)

Elevation: 900' · FEATHER R basin · Operator: CA Dept of Water Resources/O & M

Provisional data, subject to change.
Query executed Thursday at 10:56:26   clock

Select a sensor type for a plot of data.
Note: Reservoir Flows are daily averages.

Earlier

Date RES ELE    STORAGE    RES CHG    TOC STO    ABV TOC    OUTFLOW    INFLOW    EVAP    FNF    PPT INC    RAIN    PPTINC4   
 FEET   AF   AF   AF   AF   CFS   CFS   CFS   CFS   INCHES   INCHES   INCHES  
10/01/2014 675.25 1075537 -342 3338000 -2262463 2221 2150 67 992 0.00 0.00 0.00
10/02/2014 675.29 1075811 274 3325500 -2249689 1344 1571 89 491 0.00 0.00 0.00
10/03/2014 675.35 1076222 411 3313000 -2236778 1229 1470 69 321 0.00 0.00 0.00
10/04/2014 674.89 1073074 -3148 3300500 -2227426 2321 796 62 404 e 0.00 0.00 0.00
10/05/2014 674.64 1071366 -1708 3288000 -2216634 2321 1556 62 471 e 0.00 0.00 0.00
10/06/2014 674.12 1067818 -3547 3275500 -2207682 2434 699 89 471 e 0.00 0.00 0.00
10/07/2014 673.66 1064688 -3131 3263000 -2198312 2671 1165 72 538 e 0.00 0.00 0.00
10/08/2014 672.95 1059868 -4820 3250500 -2190632 2514 165 81 538 e 0.00 0.00 0.00
10/09/2014 672.52 1056956 -2912 3238000 -2181044 2667 1402 66 538 e 0.00 0.00 0.00
10/10/2014 672.03 1053645 -3311 3225500 -2171855 2858 1118 66 538 e 0.00 0.00 0.00
10/11/2014 671.48 1049937 -3708 3213000 -2163063 3022 1277 56 538 e 0.00 0.00 0.00
10/12/2014 671.00 1046708 -3228 3200500 -2153792 3023 1417 55 555 0.00 0.00 0.00
10/13/2014 670.46 1043085 -3624 3188000 -2144915 3009 1262 80 591 0.00 0.00 0.00
10/14/2014 669.56 1037064 -6021 3175500 -2138436 3374 339 34 601 e 0.00 0.00 0.00
10/15/2014 668.97 1033130 -3934 3163000 -2129870 r 3491 1589 50 600 e 0.60 0.60 0.36
10/16/2014 668.29 1028608 -4522 3163000 -2134392 2961 679 31 575 0.00 0.60 0.24
10/17/2014 667.60 1024034 -4574 3163000 -- 3342 1092 22 396 0.00 0.60 0.00
10/18/2014 666.84 1019012 -5022 3163000 -- 3597 1089 24 337 0.00 0.60 0.00
10/19/2014 666.19 1014730 -4282 3163000 -2148270 3329 1161 24 440 0.00 0.60 0.00
10/20/2014 665.33 1009084 -5646 3163000 -2153916 3052 298 59 405 0.28 0.88 0.00
10/21/2014 664.72 1005091 -3993 3163000 -2157909 2958 962 17 430 e 0.00 0.88 0.28
10/22/2014 663.94 1000002 -5089 3163000 -2162998 2770 206 35 631 0.00 0.88 0.00
10/23/2014 664.28 1002218 2216 3163000 -2160782 2980 281 21 700 e 0.00 0.88 0.00
10/24/2014 661.94 987032 -15186 3163000 -2175968 2983 -856 12 760 e 0.00 0.88 0.00
10/25/2014 661.21 982327 -4705 3163000 -2180673 3010 652 14 1689 0.96 1.84 0.00
10/26/2014 660.49 977701 -4626 3163000 -2185299 3006 689 14 1536 0.00 1.84 0.96
10/27/2014 659.76 973026 -4675 3163000 -2189974 3006 676 58 1076 0.00 1.84 0.00
10/28/2014 658.70 966264 -6762 3163000 -2196736 3008 1319 18 -- 0.00 1.84 0.00
10/29/2014 658.33 963912 -2352 3163000 -2199088 2795 257 30 -- 0.00 1.84 0.00
10/30/2014 -- -- -- -- -- -- -- -- -- -- -- 0.00

Later | Latest

Warning! This data is preliminary and subject to revision.

Show ORO Map | Plot ORO Data | 1 Month ORO Data | Real-Time ORO Data | ORO Info